sensor_id;sensor_type;location;lat;lon;timestamp;temperature;humidity
69225;DHT22;56333;51.306;17.056;2023-11-21T00:01:09;9.20;88.00
69225;DHT22;56333;51.306;17.056;2023-11-21T00:02:37;9.20;87.90
69225;DHT22;56333;51.306;17.056;2023-11-21T00:04:06;9.20;88.03
69225;DHT22;56333;51.306;17.056;2023-11-21T00:05:35;9.18;88.03
69225;DHT22;56333;51.306;17.056;2023-11-21T00:07:05;9.19;88.05
69225;DHT22;56333;51.306;17.056;2023-11-21T00:08:34;9.21;88.03
69225;DHT22;56333;51.306;17.056;2023-11-21T00:10:03;9.19;87.88
69225;DHT22;56333;51.306;17.056;2023-11-21T00:11:33;9.17;87.82
69225;DHT22;56333;51.306;17.056;2023-11-21T00:13:01;9.16;87.72
69225;DHT22;56333;51.306;17.056;2023-11-21T00:14:30;9.15;87.68
69225;DHT22;56333;51.306;17.056;2023-11-21T00:15:58;9.14;87.55
69225;DHT22;56333;51.306;17.056;2023-11-21T00:17:28;9.12;87.55
69225;DHT22;56333;51.306;17.056;2023-11-21T00:18:56;9.10;87.53
69225;DHT22;56333;51.306;17.056;2023-11-21T00:20:25;9.10;87.43
69225;DHT22;56333;51.306;17.056;2023-11-21T00:21:53;9.09;87.47
69225;DHT22;56333;51.306;17.056;2023-11-21T00:23:22;9.11;87.47
69225;DHT22;56333;51.306;17.056;2023-11-21T00:24:50;9.09;87.40
69225;DHT22;56333;51.306;17.056;2023-11-21T00:26:18;9.10;87.35
69225;DHT22;56333;51.306;17.056;2023-11-21T00:27:50;9.10;87.30
69225;DHT22;56333;51.306;17.056;2023-11-21T00:29:19;9.08;87.30
69225;DHT22;56333;51.306;17.056;2023-11-21T00:30:47;9.09;87.40
69225;DHT22;56333;51.306;17.056;2023-11-21T00:32:16;9.10;87.35
69225;DHT22;56333;51.306;17.056;2023-11-21T00:33:45;9.09;87.30
69225;DHT22;56333;51.306;17.056;2023-11-21T00:35:14;9.09;87.38
69225;DHT22;56333;51.306;17.056;2023-11-21T00:36:43;9.11;87.25
69225;DHT22;56333;51.306;17.056;2023-11-21T00:38:12;9.09;87.22
69225;DHT22;56333;51.306;17.056;2023-11-21T00:39:43;9.08;87.20
69225;DHT22;56333;51.306;17.056;2023-11-21T00:41:12;9.07;87.13
69225;DHT22;56333;51.306;17.056;2023-11-21T00:42:41;9.10;87.20
69225;DHT22;56333;51.306;17.056;2023-11-21T00:44:09;9.09;87.13
69225;DHT22;56333;51.306;17.056;2023-11-21T00:45:39;9.10;87.20
69225;DHT22;56333;51.306;17.056;2023-11-21T00:47:08;9.09;87.20
69225;DHT22;56333;51.306;17.056;2023-11-21T00:48:38;9.11;87.20
69225;DHT22;56333;51.306;17.056;2023-11-21T00:50:08;9.10;87.20
69225;DHT22;56333;51.306;17.056;2023-11-21T00:51:36;9.08;87.22
69225;DHT22;56333;51.306;17.056;2023-11-21T00:53:05;9.10;87.22
69225;DHT22;56333;51.306;17.056;2023-11-21T00:54:33;9.07;87.22
69225;DHT22;56333;51.306;17.056;2023-11-21T00:56:04;9.10;87.18
69225;DHT22;56333;51.306;17.056;2023-11-21T00:57:34;9.07;87.18
69225;DHT22;56333;51.306;17.056;2023-11-21T00:59:03;9.09;87.13
69225;DHT22;56333;51.306;17.056;2023-11-21T01:00:31;9.09;87.07
69225;DHT22;56333;51.306;17.056;2023-11-21T01:02:03;9.09;87.13
69225;DHT22;56333;51.306;17.056;2023-11-21T01:03:34;9.07;87.18
69225;DHT22;56333;51.306;17.056;2023-11-21T01:05:03;9.09;87.13
69225;DHT22;56333;51.306;17.056;2023-11-21T01:06:32;9.10;87.05
69225;DHT22;56333;51.306;17.056;2023-11-21T01:08:00;9.10;87.00
69225;DHT22;56333;51.306;17.056;2023-11-21T01:09:30;9.08;87.10
69225;DHT22;56333;51.306;17.056;2023-11-21T01:10:58;9.09;87.10
69225;DHT22;56333;51.306;17.056;2023-11-21T01:12:27;9.07;87.03
69225;DHT22;56333;51.306;17.056;2023-11-21T01:13:56;9.06;87.00
69225;DHT22;56333;51.306;17.056;2023-11-21T01:15:24;9.05;87.10
69225;DHT22;56333;51.306;17.056;2023-11-21T01:16:53;9.05;87.15
69225;DHT22;56333;51.306;17.056;2023-11-21T01:18:22;9.07;87.20
69225;DHT22;56333;51.306;17.056;2023-11-21T01:19:51;9.07;87.20
69225;DHT22;56333;51.306;17.056;2023-11-21T01:21:20;9.09;87.15
69225;DHT22;56333;51.306;17.056;2023-11-21T01:22:48;9.07;87.10
69225;DHT22;56333;51.306;17.056;2023-11-21T01:24:19;9.07;87.07
69225;DHT22;56333;51.306;17.056;2023-11-21T01:25:48;9.07;87.10
69225;DHT22;56333;51.306;17.056;2023-11-21T01:27:17;9.06;87.10
69225;DHT22;56333;51.306;17.056;2023-11-21T01:28:46;9.06;87.10
69225;DHT22;56333;51.306;17.056;2023-11-21T01:30:14;9.06;87.10
69225;DHT22;56333;51.306;17.056;2023-11-21T01:31:43;9.06;87.10
69225;DHT22;56333;51.306;17.056;2023-11-21T01:33:12;9.05;87.07
69225;DHT22;56333;51.306;17.056;2023-11-21T01:34:40;9.05;87.10
69225;DHT22;56333;51.306;17.056;2023-11-21T01:36:10;9.04;87.13
69225;DHT22;56333;51.306;17.056;2023-11-21T01:37:39;9.05;87.20
69225;DHT22;56333;51.306;17.056;2023-11-21T01:39:08;9.06;87.18
69225;DHT22;56333;51.306;17.056;2023-11-21T01:40:39;9.05;87.07
69225;DHT22;56333;51.306;17.056;2023-11-21T01:42:08;9.06;87.10
69225;DHT22;56333;51.306;17.056;2023-11-21T01:43:38;9.05;87.00
69225;DHT22;56333;51.306;17.056;2023-11-21T01:45:10;9.03;87.00
69225;DHT22;56333;51.306;17.056;2023-11-21T01:46:38;9.01;87.10
69225;DHT22;56333;51.306;17.056;2023-11-21T01:48:07;9.01;87.10
69225;DHT22;56333;51.306;17.056;2023-11-21T01:49:37;8.99;87.13
69225;DHT22;56333;51.306;17.056;2023-11-21T01:51:07;8.97;87.15
69225;DHT22;56333;51.306;17.056;2023-11-21T01:52:36;8.95;87.25
69225;DHT22;56333;51.306;17.056;2023-11-21T01:54:05;8.91;87.20
69225;DHT22;56333;51.306;17.056;2023-11-21T01:55:35;8.90;87.25
69225;DHT22;56333;51.306;17.056;2023-11-21T01:57:04;8.91;87.30
69225;DHT22;56333;51.306;17.056;2023-11-21T01:58:33;8.90;87.28
69225;DHT22;56333;51.306;17.056;2023-11-21T02:00:02;8.91;87.30
69225;DHT22;56333;51.306;17.056;2023-11-21T02:01:39;8.90;87.25
69225;DHT22;56333;51.306;17.056;2023-11-21T02:03:08;8.92;87.22
69225;DHT22;56333;51.306;17.056;2023-11-21T02:04:36;8.89;87.30
69225;DHT22;56333;51.306;17.056;2023-11-21T02:06:05;8.88;87.43
69225;DHT22;56333;51.306;17.056;2023-11-21T02:07:34;8.87;87.43
69225;DHT22;56333;51.306;17.056;2023-11-21T02:09:03;8.88;87.40
69225;DHT22;56333;51.306;17.056;2023-11-21T02:10:33;8.87;87.43
69225;DHT22;56333;51.306;17.056;2023-11-21T02:12:01;8.85;87.40
69225;DHT22;56333;51.306;17.056;2023-11-21T02:13:31;8.86;87.40
69225;DHT22;56333;51.306;17.056;2023-11-21T02:15:02;8.85;87.40
69225;DHT22;56333;51.306;17.056;2023-11-21T02:16:39;8.84;87.43
69225;DHT22;56333;51.306;17.056;2023-11-21T02:18:12;8.85;87.50
69225;DHT22;56333;51.306;17.056;2023-11-21T02:19:42;8.84;87.47
69225;DHT22;56333;51.306;17.056;2023-11-21T02:21:12;8.83;87.47
69225;DHT22;56333;51.306;17.056;2023-11-21T02:22:41;8.84;87.50
69225;DHT22;56333;51.306;17.056;2023-11-21T02:24:17;8.82;87.60
69225;DHT22;56333;51.306;17.056;2023-11-21T02:25:46;8.81;87.57
69225;DHT22;56333;51.306;17.056;2023-11-21T02:27:14;8.81;87.57
69225;DHT22;56333;51.306;17.056;2023-11-21T02:28:46;8.80;87.63
69225;DHT22;56333;51.306;17.056;2023-11-21T02:30:17;8.79;87.63
69225;DHT22;56333;51.306;17.056;2023-11-21T02:31:47;8.78;87.65
69225;DHT22;56333;51.306;17.056;2023-11-21T02:33:19;8.76;87.75
69225;DHT22;56333;51.306;17.056;2023-11-21T02:34:47;8.76;87.75
69225;DHT22;56333;51.306;17.056;2023-11-21T02:36:16;8.78;87.75
69225;DHT22;56333;51.306;17.056;2023-11-21T02:37:45;8.77;87.75
69225;DHT22;56333;51.306;17.056;2023-11-21T02:39:14;8.77;87.72
69225;DHT22;56333;51.306;17.056;2023-11-21T02:40:46;8.74;87.82
69225;DHT22;56333;51.306;17.056;2023-11-21T02:42:14;8.73;87.80
69225;DHT22;56333;51.306;17.056;2023-11-21T02:43:43;8.73;87.80
69225;DHT22;56333;51.306;17.056;2023-11-21T02:45:12;8.73;87.80
69225;DHT22;56333;51.306;17.056;2023-11-21T02:46:42;8.74;87.80
69225;DHT22;56333;51.306;17.056;2023-11-21T02:48:11;8.76;87.82
69225;DHT22;56333;51.306;17.056;2023-11-21T02:49:39;8.77;87.80
69225;DHT22;56333;51.306;17.056;2023-11-21T02:51:08;8.77;87.78
69225;DHT22;56333;51.306;17.056;2023-11-21T02:52:37;8.74;87.82
69225;DHT22;56333;51.306;17.056;2023-11-21T02:54:06;8.75;87.90
69225;DHT22;56333;51.306;17.056;2023-11-21T02:55:37;8.72;87.88
69225;DHT22;56333;51.306;17.056;2023-11-21T02:57:06;8.72;87.93
69225;DHT22;56333;51.306;17.056;2023-11-21T02:58:34;8.71;87.97
69225;DHT22;56333;51.306;17.056;2023-11-21T03:00:04;8.67;88.05
69225;DHT22;56333;51.306;17.056;2023-11-21T03:01:37;8.68;88.00
69225;DHT22;56333;51.306;17.056;2023-11-21T03:03:05;8.68;88.00
69225;DHT22;56333;51.306;17.056;2023-11-21T03:04:34;8.68;88.07
69225;DHT22;56333;51.306;17.056;2023-11-21T03:06:02;8.69;88.13
69225;DHT22;56333;51.306;17.056;2023-11-21T03:07:32;8.70;88.10
69225;DHT22;56333;51.306;17.056;2023-11-21T03:09:01;8.69;88.10
69225;DHT22;56333;51.306;17.056;2023-11-21T03:10:30;8.68;88.05
69225;DHT22;56333;51.306;17.056;2023-11-21T03:11:59;8.68;88.25
69225;DHT22;56333;51.306;17.056;2023-11-21T03:13:27;8.68;88.20
69225;DHT22;56333;51.306;17.056;2023-11-21T03:14:55;8.68;88.22
69225;DHT22;56333;51.306;17.056;2023-11-21T03:16:25;8.70;88.30
69225;DHT22;56333;51.306;17.056;2023-11-21T03:17:55;8.69;88.28
69225;DHT22;56333;51.306;17.056;2023-11-21T03:19:25;8.69;88.32
69225;DHT22;56333;51.306;17.056;2023-11-21T03:20:55;8.69;88.30
69225;DHT22;56333;51.306;17.056;2023-11-21T03:22:23;8.70;88.38
69225;DHT22;56333;51.306;17.056;2023-11-21T03:23:52;8.68;88.35
69225;DHT22;56333;51.306;17.056;2023-11-21T03:25:21;8.67;88.45
69225;DHT22;56333;51.306;17.056;2023-11-21T03:26:49;8.70;88.47
69225;DHT22;56333;51.306;17.056;2023-11-21T03:28:18;8.68;88.45
69225;DHT22;56333;51.306;17.056;2023-11-21T03:29:47;8.69;88.40
69225;DHT22;56333;51.306;17.056;2023-11-21T03:31:16;8.69;88.50
69225;DHT22;56333;51.306;17.056;2023-11-21T03:32:45;8.71;88.50
69225;DHT22;56333;51.306;17.056;2023-11-21T03:34:19;8.69;88.57
69225;DHT22;56333;51.306;17.056;2023-11-21T03:35:51;8.68;88.57
69225;DHT22;56333;51.306;17.056;2023-11-21T03:37:19;8.70;88.55
69225;DHT22;56333;51.306;17.056;2023-11-21T03:38:47;8.66;88.57
69225;DHT22;56333;51.306;17.056;2023-11-21T03:40:16;8.66;88.60
69225;DHT22;56333;51.306;17.056;2023-11-21T03:41:45;8.65;88.68
69225;DHT22;56333;51.306;17.056;2023-11-21T03:43:14;8.66;88.60
69225;DHT22;56333;51.306;17.056;2023-11-21T03:44:43;8.68;88.60
69225;DHT22;56333;51.306;17.056;2023-11-21T03:46:11;8.67;88.60
69225;DHT22;56333;51.306;17.056;2023-11-21T03:47:40;8.68;88.60
69225;DHT22;56333;51.306;17.056;2023-11-21T03:49:09;8.68;88.65
69225;DHT22;56333;51.306;17.056;2023-11-21T03:50:39;8.69;88.57
69225;DHT22;56333;51.306;17.056;2023-11-21T03:52:08;8.67;88.55
69225;DHT22;56333;51.306;17.056;2023-11-21T03:53:37;8.67;88.60
69225;DHT22;56333;51.306;17.056;2023-11-21T03:55:08;8.67;88.65
69225;DHT22;56333;51.306;17.056;2023-11-21T03:56:38;8.68;88.65
69225;DHT22;56333;51.306;17.056;2023-11-21T03:58:07;8.69;88.60
69225;DHT22;56333;51.306;17.056;2023-11-21T03:59:35;8.67;88.63
69225;DHT22;56333;51.306;17.056;2023-11-21T04:01:07;8.69;88.60
69225;DHT22;56333;51.306;17.056;2023-11-21T04:02:35;8.71;88.60
69225;DHT22;56333;51.306;17.056;2023-11-21T04:04:05;8.71;88.53
69225;DHT22;56333;51.306;17.056;2023-11-21T04:05:33;8.72;88.55
69225;DHT22;56333;51.306;17.056;2023-11-21T04:07:02;8.71;88.53
69225;DHT22;56333;51.306;17.056;2023-11-21T04:08:30;8.68;88.50
69225;DHT22;56333;51.306;17.056;2023-11-21T04:09:59;8.69;88.60
69225;DHT22;56333;51.306;17.056;2023-11-21T04:11:28;8.68;88.57
69225;DHT22;56333;51.306;17.056;2023-11-21T04:12:56;8.65;88.60
69225;DHT22;56333;51.306;17.056;2023-11-21T04:14:26;8.68;88.60
69225;DHT22;56333;51.306;17.056;2023-11-21T04:15:55;8.70;88.60
69225;DHT22;56333;51.306;17.056;2023-11-21T04:17:27;8.70;88.55
69225;DHT22;56333;51.306;17.056;2023-11-21T04:18:56;8.70;88.60
69225;DHT22;56333;51.306;17.056;2023-11-21T04:20:25;8.71;88.60
69225;DHT22;56333;51.306;17.056;2023-11-21T04:21:53;8.75;88.60
69225;DHT22;56333;51.306;17.056;2023-11-21T04:23:21;8.77;88.53
69225;DHT22;56333;51.306;17.056;2023-11-21T04:24:50;8.77;88.50
69225;DHT22;56333;51.306;17.056;2023-11-21T04:26:20;8.77;88.50
69225;DHT22;56333;51.306;17.056;2023-11-21T04:27:48;8.78;88.45
69225;DHT22;56333;51.306;17.056;2023-11-21T04:29:17;8.78;88.45
69225;DHT22;56333;51.306;17.056;2023-11-21T04:30:45;8.79;88.47
69225;DHT22;56333;51.306;17.056;2023-11-21T04:32:14;8.81;88.55
69225;DHT22;56333;51.306;17.056;2023-11-21T04:33:42;8.84;88.53
69225;DHT22;56333;51.306;17.056;2023-11-21T04:35:11;8.86;88.43
69225;DHT22;56333;51.306;17.056;2023-11-21T04:36:40;8.86;88.40
69225;DHT22;56333;51.306;17.056;2023-11-21T04:38:09;8.88;88.28
69225;DHT22;56333;51.306;17.056;2023-11-21T04:39:37;8.89;88.30
69225;DHT22;56333;51.306;17.056;2023-11-21T04:41:06;8.88;88.28
69225;DHT22;56333;51.306;17.056;2023-11-21T04:42:37;8.89;88.22
69225;DHT22;56333;51.306;17.056;2023-11-21T04:44:05;8.87;88.30
69225;DHT22;56333;51.306;17.056;2023-11-21T04:45:34;8.90;88.22
69225;DHT22;56333;51.306;17.056;2023-11-21T04:47:02;8.89;88.20
69225;DHT22;56333;51.306;17.056;2023-11-21T04:48:31;8.90;88.13
69225;DHT22;56333;51.306;17.056;2023-11-21T04:50:00;8.86;88.15
69225;DHT22;56333;51.306;17.056;2023-11-21T04:51:29;8.89;88.10
69225;DHT22;56333;51.306;17.056;2023-11-21T04:52:58;8.88;88.18
69225;DHT22;56333;51.306;17.056;2023-11-21T04:54:26;8.88;88.15
69225;DHT22;56333;51.306;17.056;2023-11-21T04:55:55;8.88;88.10
69225;DHT22;56333;51.306;17.056;2023-11-21T04:57:24;8.88;88.13
69225;DHT22;56333;51.306;17.056;2023-11-21T04:58:54;8.88;88.03
69225;DHT22;56333;51.306;17.056;2023-11-21T05:00:23;8.86;88.10
69225;DHT22;56333;51.306;17.056;2023-11-21T05:01:51;8.87;88.10
69225;DHT22;56333;51.306;17.056;2023-11-21T05:03:20;8.89;88.13
69225;DHT22;56333;51.306;17.056;2023-11-21T05:04:49;8.92;88.18
69225;DHT22;56333;51.306;17.056;2023-11-21T05:06:18;8.90;88.10
69225;DHT22;56333;51.306;17.056;2023-11-21T05:07:48;8.92;87.97
69225;DHT22;56333;51.306;17.056;2023-11-21T05:09:17;8.92;88.00
69225;DHT22;56333;51.306;17.056;2023-11-21T05:10:46;8.94;88.00
69225;DHT22;56333;51.306;17.056;2023-11-21T05:12:16;8.93;87.95
69225;DHT22;56333;51.306;17.056;2023-11-21T05:13:44;8.93;87.95
69225;DHT22;56333;51.306;17.056;2023-11-21T05:15:15;8.93;87.93
69225;DHT22;56333;51.306;17.056;2023-11-21T05:16:43;8.93;87.93
69225;DHT22;56333;51.306;17.056;2023-11-21T05:18:12;8.91;87.90
69225;DHT22;56333;51.306;17.056;2023-11-21T05:19:40;8.92;87.93
69225;DHT22;56333;51.306;17.056;2023-11-21T05:21:09;8.92;87.93
69225;DHT22;56333;51.306;17.056;2023-11-21T05:22:39;8.93;87.82
69225;DHT22;56333;51.306;17.056;2023-11-21T05:24:08;8.92;87.85
69225;DHT22;56333;51.306;17.056;2023-11-21T05:25:36;8.90;87.85
69225;DHT22;56333;51.306;17.056;2023-11-21T05:27:05;8.90;88.00
69225;DHT22;56333;51.306;17.056;2023-11-21T05:28:35;8.91;87.95
69225;DHT22;56333;51.306;17.056;2023-11-21T05:30:05;8.90;87.85
69225;DHT22;56333;51.306;17.056;2023-11-21T05:31:38;8.89;87.82
69225;DHT22;56333;51.306;17.056;2023-11-21T05:33:06;8.87;87.78
69225;DHT22;56333;51.306;17.056;2023-11-21T05:34:35;8.86;87.82
69225;DHT22;56333;51.306;17.056;2023-11-21T05:36:04;8.85;87.80
69225;DHT22;56333;51.306;17.056;2023-11-21T05:37:35;8.82;87.82
69225;DHT22;56333;51.306;17.056;2023-11-21T05:39:04;8.82;87.80
69225;DHT22;56333;51.306;17.056;2023-11-21T05:40:33;8.81;87.72
69225;DHT22;56333;51.306;17.056;2023-11-21T05:42:01;8.80;87.78
69225;DHT22;56333;51.306;17.056;2023-11-21T05:43:30;8.77;87.80
69225;DHT22;56333;51.306;17.056;2023-11-21T05:44:59;8.76;87.93
69225;DHT22;56333;51.306;17.056;2023-11-21T05:46:33;8.78;87.90
69225;DHT22;56333;51.306;17.056;2023-11-21T05:48:01;8.78;87.80
69225;DHT22;56333;51.306;17.056;2023-11-21T05:49:30;8.77;87.85
69225;DHT22;56333;51.306;17.056;2023-11-21T05:50:59;8.77;87.82
69225;DHT22;56333;51.306;17.056;2023-11-21T05:52:28;8.79;87.82
69225;DHT22;56333;51.306;17.056;2023-11-21T05:53:58;8.80;87.82
69225;DHT22;56333;51.306;17.056;2023-11-21T05:55:26;8.79;87.80
69225;DHT22;56333;51.306;17.056;2023-11-21T05:56:55;8.80;87.88
69225;DHT22;56333;51.306;17.056;2023-11-21T05:58:24;8.82;87.82
69225;DHT22;56333;51.306;17.056;2023-11-21T05:59:52;8.81;87.80
69225;DHT22;56333;51.306;17.056;2023-11-21T06:01:21;8.80;87.80
69225;DHT22;56333;51.306;17.056;2023-11-21T06:02:52;8.79;87.80
69225;DHT22;56333;51.306;17.056;2023-11-21T06:04:21;8.80;87.80
69225;DHT22;56333;51.306;17.056;2023-11-21T06:05:51;8.77;87.80
69225;DHT22;56333;51.306;17.056;2023-11-21T06:07:19;8.75;87.72
69225;DHT22;56333;51.306;17.056;2023-11-21T06:08:48;8.73;87.85
69225;DHT22;56333;51.306;17.056;2023-11-21T06:10:17;8.68;87.93
69225;DHT22;56333;51.306;17.056;2023-11-21T06:11:47;8.70;87.93
69225;DHT22;56333;51.306;17.056;2023-11-21T06:13:16;8.70;88.00
69225;DHT22;56333;51.306;17.056;2023-11-21T06:14:48;8.67;88.00
69225;DHT22;56333;51.306;17.056;2023-11-21T06:16:17;8.68;87.97
69225;DHT22;56333;51.306;17.056;2023-11-21T06:17:45;8.67;87.97
69225;DHT22;56333;51.306;17.056;2023-11-21T06:19:16;8.64;88.03
69225;DHT22;56333;51.306;17.056;2023-11-21T06:20:45;8.65;88.05
69225;DHT22;56333;51.306;17.056;2023-11-21T06:22:14;8.67;88.10
69225;DHT22;56333;51.306;17.056;2023-11-21T06:23:43;8.69;88.20
69225;DHT22;56333;51.306;17.056;2023-11-21T06:25:13;8.69;88.10
69225;DHT22;56333;51.306;17.056;2023-11-21T06:26:42;8.70;88.10
69225;DHT22;56333;51.306;17.056;2023-11-21T06:28:12;8.73;88.07
69225;DHT22;56333;51.306;17.056;2023-11-21T06:29:41;8.72;87.95
69225;DHT22;56333;51.306;17.056;2023-11-21T06:31:14;8.70;88.00
69225;DHT22;56333;51.306;17.056;2023-11-21T06:32:43;8.72;88.05
69225;DHT22;56333;51.306;17.056;2023-11-21T06:34:11;8.74;88.03
69225;DHT22;56333;51.306;17.056;2023-11-21T06:35:40;8.74;88.00
69225;DHT22;56333;51.306;17.056;2023-11-21T06:37:08;8.75;87.90
69225;DHT22;56333;51.306;17.056;2023-11-21T06:38:37;8.76;87.90
69225;DHT22;56333;51.306;17.056;2023-11-21T06:40:07;8.77;87.90
69225;DHT22;56333;51.306;17.056;2023-11-21T06:41:37;8.79;87.82
69225;DHT22;56333;51.306;17.056;2023-11-21T06:43:07;8.78;87.85
69225;DHT22;56333;51.306;17.056;2023-11-21T06:44:35;8.77;87.72
69225;DHT22;56333;51.306;17.056;2023-11-21T06:46:06;8.78;87.75
69225;DHT22;56333;51.306;17.056;2023-11-21T06:47:35;8.77;87.70
69225;DHT22;56333;51.306;17.056;2023-11-21T06:49:03;8.77;87.70
69225;DHT22;56333;51.306;17.056;2023-11-21T06:50:32;8.78;87.70
69225;DHT22;56333;51.306;17.056;2023-11-21T06:52:01;8.79;87.70
69225;DHT22;56333;51.306;17.056;2023-11-21T06:53:29;8.78;87.70
69225;DHT22;56333;51.306;17.056;2023-11-21T06:54:58;8.80;87.70
69225;DHT22;56333;51.306;17.056;2023-11-21T06:56:28;8.80;87.68
69225;DHT22;56333;51.306;17.056;2023-11-21T06:57:57;8.81;87.65
69225;DHT22;56333;51.306;17.056;2023-11-21T06:59:26;8.81;87.70
69225;DHT22;56333;51.306;17.056;2023-11-21T07:00:56;8.81;87.68
69225;DHT22;56333;51.306;17.056;2023-11-21T07:02:24;8.84;87.70
69225;DHT22;56333;51.306;17.056;2023-11-21T07:03:53;8.83;87.75
69225;DHT22;56333;51.306;17.056;2023-11-21T07:05:22;8.85;87.70
69225;DHT22;56333;51.306;17.056;2023-11-21T07:06:51;8.88;87.70
69225;DHT22;56333;51.306;17.056;2023-11-21T07:08:20;8.89;87.70
69225;DHT22;56333;51.306;17.056;2023-11-21T07:09:48;8.88;87.65
69225;DHT22;56333;51.306;17.056;2023-11-21T07:11:16;8.90;87.68
69225;DHT22;56333;51.306;17.056;2023-11-21T07:12:45;8.90;87.70
69225;DHT22;56333;51.306;17.056;2023-11-21T07:14:15;8.93;87.70
69225;DHT22;56333;51.306;17.056;2023-11-21T07:15:44;8.94;87.70
69225;DHT22;56333;51.306;17.056;2023-11-21T07:17:13;8.96;87.63
69225;DHT22;56333;51.306;17.056;2023-11-21T07:18:41;8.97;87.53
69225;DHT22;56333;51.306;17.056;2023-11-21T07:20:12;8.95;87.50
69225;DHT22;56333;51.306;17.056;2023-11-21T07:21:41;8.96;87.63
69225;DHT22;56333;51.306;17.056;2023-11-21T07:23:09;8.97;87.70
69225;DHT22;56333;51.306;17.056;2023-11-21T07:24:39;8.99;87.63
69225;DHT22;56333;51.306;17.056;2023-11-21T07:26:09;8.99;87.60
69225;DHT22;56333;51.306;17.056;2023-11-21T07:27:38;8.97;87.57
69225;DHT22;56333;51.306;17.056;2023-11-21T07:29:06;8.96;87.60
69225;DHT22;56333;51.306;17.056;2023-11-21T07:30:35;8.97;87.55
69225;DHT22;56333;51.306;17.056;2023-11-21T07:32:04;8.97;87.53
69225;DHT22;56333;51.306;17.056;2023-11-21T07:33:34;8.97;87.60
69225;DHT22;56333;51.306;17.056;2023-11-21T07:35:04;8.98;87.65
69225;DHT22;56333;51.306;17.056;2023-11-21T07:36:33;9.00;87.68
69225;DHT22;56333;51.306;17.056;2023-11-21T07:38:02;9.01;87.70
69225;DHT22;56333;51.306;17.056;2023-11-21T07:39:31;9.02;87.70
69225;DHT22;56333;51.306;17.056;2023-11-21T07:40:59;9.04;87.70
69225;DHT22;56333;51.306;17.056;2023-11-21T07:42:27;9.06;87.65
69225;DHT22;56333;51.306;17.056;2023-11-21T07:43:57;9.07;87.65
69225;DHT22;56333;51.306;17.056;2023-11-21T07:45:26;9.09;87.65
69225;DHT22;56333;51.306;17.056;2023-11-21T07:46:55;9.08;87.70
69225;DHT22;56333;51.306;17.056;2023-11-21T07:48:24;9.11;87.68
69225;DHT22;56333;51.306;17.056;2023-11-21T07:49:53;9.10;87.60
69225;DHT22;56333;51.306;17.056;2023-11-21T07:51:21;9.10;87.60
69225;DHT22;56333;51.306;17.056;2023-11-21T07:52:50;9.11;87.60
69225;DHT22;56333;51.306;17.056;2023-11-21T07:54:20;9.13;87.50
69225;DHT22;56333;51.306;17.056;2023-11-21T07:55:48;9.14;87.53
69225;DHT22;56333;51.306;17.056;2023-11-21T07:57:17;9.15;87.60
69225;DHT22;56333;51.306;17.056;2023-11-21T08:00:59;9.14;87.47
69225;DHT22;56333;51.306;17.056;2023-11-21T08:02:28;9.15;87.38
69225;DHT22;56333;51.306;17.056;2023-11-21T08:03:56;9.15;87.35
69225;DHT22;56333;51.306;17.056;2023-11-21T08:05:28;9.14;87.40
69225;DHT22;56333;51.306;17.056;2023-11-21T08:06:58;9.12;87.40
69225;DHT22;56333;51.306;17.056;2023-11-21T08:08:28;9.13;87.40
69225;DHT22;56333;51.306;17.056;2023-11-21T08:09:57;9.13;87.40
69225;DHT22;56333;51.306;17.056;2023-11-21T08:11:25;9.14;87.43
69225;DHT22;56333;51.306;17.056;2023-11-21T08:12:56;9.15;87.40
69225;DHT22;56333;51.306;17.056;2023-11-21T08:14:24;9.16;87.38
69225;DHT22;56333;51.306;17.056;2023-11-21T08:15:55;9.16;87.32
69225;DHT22;56333;51.306;17.056;2023-11-21T08:17:27;9.16;87.22
69225;DHT22;56333;51.306;17.056;2023-11-21T08:18:56;9.14;87.20
69225;DHT22;56333;51.306;17.056;2023-11-21T08:20:25;9.11;87.28
69225;DHT22;56333;51.306;17.056;2023-11-21T08:21:53;9.14;87.40
69225;DHT22;56333;51.306;17.056;2023-11-21T08:23:23;9.17;87.30
69225;DHT22;56333;51.306;17.056;2023-11-21T08:24:54;9.18;87.30
69225;DHT22;56333;51.306;17.056;2023-11-21T08:26:22;9.17;87.38
69225;DHT22;56333;51.306;17.056;2023-11-21T08:27:51;9.18;87.32
69225;DHT22;56333;51.306;17.056;2023-11-21T08:29:20;9.19;87.38
69225;DHT22;56333;51.306;17.056;2023-11-21T08:30:48;9.21;87.40
69225;DHT22;56333;51.306;17.056;2023-11-21T08:32:17;9.23;87.40
69225;DHT22;56333;51.306;17.056;2023-11-21T08:33:45;9.24;87.40
69225;DHT22;56333;51.306;17.056;2023-11-21T08:35:14;9.25;87.38
69225;DHT22;56333;51.306;17.056;2023-11-21T08:36:44;9.26;87.32
69225;DHT22;56333;51.306;17.056;2023-11-21T08:38:12;9.26;87.30
69225;DHT22;56333;51.306;17.056;2023-11-21T08:39:41;9.27;87.30
69225;DHT22;56333;51.306;17.056;2023-11-21T08:41:10;9.27;87.20
69225;DHT22;56333;51.306;17.056;2023-11-21T08:42:38;9.27;87.15
69225;DHT22;56333;51.306;17.056;2023-11-21T08:44:07;9.29;87.07
69225;DHT22;56333;51.306;17.056;2023-11-21T08:45:36;9.29;87.05
69225;DHT22;56333;51.306;17.056;2023-11-21T08:47:05;9.31;86.95
69225;DHT22;56333;51.306;17.056;2023-11-21T08:48:34;9.31;86.88
69225;DHT22;56333;51.306;17.056;2023-11-21T08:50:04;9.31;86.85
69225;DHT22;56333;51.306;17.056;2023-11-21T08:51:36;9.31;86.72
69225;DHT22;56333;51.306;17.056;2023-11-21T08:53:04;9.31;86.60
69225;DHT22;56333;51.306;17.056;2023-11-21T08:54:35;9.28;86.50
69225;DHT22;56333;51.306;17.056;2023-11-21T08:56:05;9.27;86.50
69225;DHT22;56333;51.306;17.056;2023-11-21T08:57:34;9.26;86.38
69225;DHT22;56333;51.306;17.056;2023-11-21T08:59:04;9.25;86.20
69225;DHT22;56333;51.306;17.056;2023-11-21T09:00:33;9.22;86.10
69225;DHT22;56333;51.306;17.056;2023-11-21T09:02:02;9.21;86.10
69225;DHT22;56333;51.306;17.056;2023-11-21T09:03:32;9.20;86.10
69225;DHT22;56333;51.306;17.056;2023-11-21T09:05:00;9.20;86.00
69225;DHT22;56333;51.306;17.056;2023-11-21T09:06:30;9.16;85.90
69225;DHT22;56333;51.306;17.056;2023-11-21T09:07:59;9.15;85.90
69225;DHT22;56333;51.306;17.056;2023-11-21T09:09:27;9.11;85.85
69225;DHT22;56333;51.306;17.056;2023-11-21T09:10:56;9.10;85.82
69225;DHT22;56333;51.306;17.056;2023-11-21T09:12:24;9.06;85.82
69225;DHT22;56333;51.306;17.056;2023-11-21T09:13:53;9.04;85.90
69225;DHT22;56333;51.306;17.056;2023-11-21T09:15:22;9.01;85.90
69225;DHT22;56333;51.306;17.056;2023-11-21T09:16:50;9.00;85.97
69225;DHT22;56333;51.306;17.056;2023-11-21T09:18:21;9.01;85.90
69225;DHT22;56333;51.306;17.056;2023-11-21T09:19:50;8.99;85.88
69225;DHT22;56333;51.306;17.056;2023-11-21T09:21:18;8.99;86.00
69225;DHT22;56333;51.306;17.056;2023-11-21T09:22:47;8.98;85.90
69225;DHT22;56333;51.306;17.056;2023-11-21T09:24:16;8.95;85.95
69225;DHT22;56333;51.306;17.056;2023-11-21T09:25:44;8.95;86.03